sensor_id;sensor_type;location;lat;lon;timestamp;P1;durP1;ratioP1;P2;durP2;ratioP2
291;SDS011;23311;48.776;9.162;2023-11-19T00:01:16;4.50;;;2.50;;
291;SDS011;23311;48.776;9.162;2023-11-19T00:03:46;3.67;;;2.87;;
291;SDS011;23311;48.776;9.162;2023-11-19T00:06:16;2.50;;;2.33;;
291;SDS011;23311;48.776;9.162;2023-11-19T00:08:44;3.63;;;3.07;;
291;SDS011;23311;48.776;9.162;2023-11-19T00:11:13;3.20;;;2.87;;
291;SDS011;23311;48.776;9.162;2023-11-19T00:13:42;3.33;;;2.93;;
291;SDS011;23311;48.776;9.162;2023-11-19T00:16:10;4.63;;;2.53;;
291;SDS011;23311;48.776;9.162;2023-11-19T00:18:38;2.23;;;2.10;;
291;SDS011;23311;48.776;9.162;2023-11-19T00:21:08;2.90;;;2.27;;
291;SDS011;23311;48.776;9.162;2023-11-19T00:23:36;5.33;;;2.00;;
291;SDS011;23311;48.776;9.162;2023-11-19T00:26:05;2.37;;;1.90;;
291;SDS011;23311;48.776;9.162;2023-11-19T00:28:33;2.30;;;1.60;;
291;SDS011;23311;48.776;9.162;2023-11-19T00:31:05;2.80;;;1.70;;
291;SDS011;23311;48.776;9.162;2023-11-19T00:33:33;2.63;;;1.60;;
291;SDS011;23311;48.776;9.162;2023-11-19T00:36:01;1.53;;;1.47;;
291;SDS011;23311;48.776;9.162;2023-11-19T00:38:31;1.47;;;1.00;;
291;SDS011;23311;48.776;9.162;2023-11-19T00:40:59;1.97;;;1.10;;
291;SDS011;23311;48.776;9.162;2023-11-19T00:43:28;1.57;;;1.40;;
291;SDS011;23311;48.776;9.162;2023-11-19T00:45:57;2.73;;;1.50;;
291;SDS011;23311;48.776;9.162;2023-11-19T00:48:25;1.43;;;1.13;;
291;SDS011;23311;48.776;9.162;2023-11-19T00:50:54;2.93;;;1.57;;
291;SDS011;23311;48.776;9.162;2023-11-19T00:53:22;2.90;;;1.40;;
291;SDS011;23311;48.776;9.162;2023-11-19T00:55:52;1.70;;;1.00;;
291;SDS011;23311;48.776;9.162;2023-11-19T00:58:20;2.33;;;1.40;;
291;SDS011;23311;48.776;9.162;2023-11-19T01:00:48;1.50;;;1.10;;
291;SDS011;23311;48.776;9.162;2023-11-19T01:03:16;7.70;;;1.40;;
291;SDS011;23311;48.776;9.162;2023-11-19T01:05:45;2.00;;;1.00;;
291;SDS011;23311;48.776;9.162;2023-11-19T01:08:14;1.93;;;1.33;;
291;SDS011;23311;48.776;9.162;2023-11-19T01:10:43;2.27;;;1.00;;
291;SDS011;23311;48.776;9.162;2023-11-19T01:13:13;1.40;;;0.60;;
291;SDS011;23311;48.776;9.162;2023-11-19T01:15:41;1.23;;;1.00;;
291;SDS011;23311;48.776;9.162;2023-11-19T01:18:09;0.80;;;0.67;;
291;SDS011;23311;48.776;9.162;2023-11-19T01:20:38;1.30;;;0.90;;
291;SDS011;23311;48.776;9.162;2023-11-19T01:23:06;1.20;;;0.80;;
291;SDS011;23311;48.776;9.162;2023-11-19T01:25:34;1.30;;;0.60;;
291;SDS011;23311;48.776;9.162;2023-11-19T01:28:04;1.20;;;0.70;;
291;SDS011;23311;48.776;9.162;2023-11-19T01:30:34;1.07;;;0.70;;
291;SDS011;23311;48.776;9.162;2023-11-19T01:33:02;1.37;;;1.03;;
291;SDS011;23311;48.776;9.162;2023-11-19T01:35:30;1.20;;;0.60;;
291;SDS011;23311;48.776;9.162;2023-11-19T01:37:58;1.20;;;0.70;;
291;SDS011;23311;48.776;9.162;2023-11-19T01:40:26;0.90;;;0.40;;
291;SDS011;23311;48.776;9.162;2023-11-19T01:42:54;1.13;;;0.60;;
291;SDS011;23311;48.776;9.162;2023-11-19T01:45:27;1.00;;;0.67;;
291;SDS011;23311;48.776;9.162;2023-11-19T01:47:58;0.77;;;0.43;;
291;SDS011;23311;48.776;9.162;2023-11-19T01:50:30;1.10;;;0.50;;
291;SDS011;23311;48.776;9.162;2023-11-19T01:53:00;1.00;;;0.50;;
291;SDS011;23311;48.776;9.162;2023-11-19T01:55:28;1.83;;;0.70;;
291;SDS011;23311;48.776;9.162;2023-11-19T01:57:58;2.13;;;0.57;;
291;SDS011;23311;48.776;9.162;2023-11-19T02:00:29;0.80;;;0.50;;
291;SDS011;23311;48.776;9.162;2023-11-19T02:03:01;1.10;;;0.83;;
291;SDS011;23311;48.776;9.162;2023-11-19T02:05:30;2.40;;;0.70;;
291;SDS011;23311;48.776;9.162;2023-11-19T02:07:59;1.30;;;0.40;;
291;SDS011;23311;48.776;9.162;2023-11-19T02:10:27;0.90;;;0.50;;
291;SDS011;23311;48.776;9.162;2023-11-19T02:12:55;1.67;;;0.50;;
291;SDS011;23311;48.776;9.162;2023-11-19T02:15:32;1.43;;;0.60;;
291;SDS011;23311;48.776;9.162;2023-11-19T02:18:21;2.07;;;0.53;;
291;SDS011;23311;48.776;9.162;2023-11-19T02:20:51;1.23;;;0.60;;
291;SDS011;23311;48.776;9.162;2023-11-19T02:23:20;1.90;;;0.50;;
291;SDS011;23311;48.776;9.162;2023-11-19T02:25:53;1.10;;;0.50;;
291;SDS011;23311;48.776;9.162;2023-11-19T02:28:29;0.90;;;0.43;;
291;SDS011;23311;48.776;9.162;2023-11-19T02:30:59;1.10;;;0.60;;
291;SDS011;23311;48.776;9.162;2023-11-19T02:33:27;0.80;;;0.50;;
291;SDS011;23311;48.776;9.162;2023-11-19T02:35:55;1.00;;;0.40;;
291;SDS011;23311;48.776;9.162;2023-11-19T02:38:23;0.70;;;0.40;;
291;SDS011;23311;48.776;9.162;2023-11-19T02:40:52;1.33;;;0.50;;
291;SDS011;23311;48.776;9.162;2023-11-19T02:43:20;0.70;;;0.40;;
291;SDS011;23311;48.776;9.162;2023-11-19T02:45:49;0.80;;;0.40;;
291;SDS011;23311;48.776;9.162;2023-11-19T02:48:17;0.80;;;0.40;;
291;SDS011;23311;48.776;9.162;2023-11-19T02:50:47;0.80;;;0.40;;
291;SDS011;23311;48.776;9.162;2023-11-19T02:53:15;0.60;;;0.40;;
291;SDS011;23311;48.776;9.162;2023-11-19T02:55:43;0.90;;;0.40;;
291;SDS011;23311;48.776;9.162;2023-11-19T02:58:16;1.00;;;0.40;;
291;SDS011;23311;48.776;9.162;2023-11-19T03:00:51;0.70;;;0.37;;
291;SDS011;23311;48.776;9.162;2023-11-19T03:03:23;0.70;;;0.30;;
291;SDS011;23311;48.776;9.162;2023-11-19T03:05:55;1.13;;;0.50;;
291;SDS011;23311;48.776;9.162;2023-11-19T03:08:23;1.23;;;0.40;;
291;SDS011;23311;48.776;9.162;2023-11-19T03:10:51;1.53;;;0.33;;
291;SDS011;23311;48.776;9.162;2023-11-19T03:13:20;0.70;;;0.30;;
291;SDS011;23311;48.776;9.162;2023-11-19T03:15:48;1.40;;;0.90;;
291;SDS011;23311;48.776;9.162;2023-11-19T03:18:18;1.20;;;0.60;;
291;SDS011;23311;48.776;9.162;2023-11-19T03:20:46;0.97;;;0.40;;
291;SDS011;23311;48.776;9.162;2023-11-19T03:23:14;0.80;;;0.43;;
291;SDS011;23311;48.776;9.162;2023-11-19T03:25:42;1.37;;;0.70;;
291;SDS011;23311;48.776;9.162;2023-11-19T03:28:10;0.70;;;0.30;;
291;SDS011;23311;48.776;9.162;2023-11-19T03:30:38;1.37;;;0.50;;
291;SDS011;23311;48.776;9.162;2023-11-19T03:33:06;0.90;;;0.50;;
291;SDS011;23311;48.776;9.162;2023-11-19T03:35:36;1.20;;;0.67;;
291;SDS011;23311;48.776;9.162;2023-11-19T03:38:04;0.70;;;0.40;;
291;SDS011;23311;48.776;9.162;2023-11-19T03:40:32;1.00;;;0.47;;
291;SDS011;23311;48.776;9.162;2023-11-19T03:43:00;0.90;;;0.47;;
291;SDS011;23311;48.776;9.162;2023-11-19T03:45:30;0.90;;;0.50;;
291;SDS011;23311;48.776;9.162;2023-11-19T03:47:58;0.70;;;0.30;;
291;SDS011;23311;48.776;9.162;2023-11-19T03:50:27;2.70;;;0.40;;
291;SDS011;23311;48.776;9.162;2023-11-19T03:52:56;1.10;;;0.50;;
291;SDS011;23311;48.776;9.162;2023-11-19T03:55:24;1.50;;;0.40;;
291;SDS011;23311;48.776;9.162;2023-11-19T03:57:52;0.90;;;0.40;;
291;SDS011;23311;48.776;9.162;2023-11-19T04:00:20;0.80;;;0.33;;
291;SDS011;23311;48.776;9.162;2023-11-19T04:02:49;1.30;;;0.50;;
291;SDS011;23311;48.776;9.162;2023-11-19T04:05:17;0.80;;;0.30;;
291;SDS011;23311;48.776;9.162;2023-11-19T04:07:46;0.70;;;0.30;;
291;SDS011;23311;48.776;9.162;2023-11-19T04:10:15;1.10;;;0.40;;
291;SDS011;23311;48.776;9.162;2023-11-19T04:12:44;0.60;;;0.30;;
291;SDS011;23311;48.776;9.162;2023-11-19T04:15:14;0.70;;;0.30;;
291;SDS011;23311;48.776;9.162;2023-11-19T04:17:42;1.37;;;0.50;;
291;SDS011;23311;48.776;9.162;2023-11-19T04:20:10;1.10;;;0.40;;
291;SDS011;23311;48.776;9.162;2023-11-19T04:22:41;1.47;;;0.80;;
291;SDS011;23311;48.776;9.162;2023-11-19T04:25:09;0.60;;;0.30;;
291;SDS011;23311;48.776;9.162;2023-11-19T04:27:39;0.70;;;0.30;;
291;SDS011;23311;48.776;9.162;2023-11-19T04:30:07;0.77;;;0.33;;
291;SDS011;23311;48.776;9.162;2023-11-19T04:32:37;0.70;;;0.30;;
291;SDS011;23311;48.776;9.162;2023-11-19T04:35:06;4.40;;;0.40;;
291;SDS011;23311;48.776;9.162;2023-11-19T04:37:35;1.73;;;0.30;;
291;SDS011;23311;48.776;9.162;2023-11-19T04:40:04;0.70;;;0.30;;
291;SDS011;23311;48.776;9.162;2023-11-19T04:42:33;0.70;;;0.40;;
291;SDS011;23311;48.776;9.162;2023-11-19T04:45:02;0.70;;;0.40;;
291;SDS011;23311;48.776;9.162;2023-11-19T04:47:32;1.10;;;0.40;;
291;SDS011;23311;48.776;9.162;2023-11-19T04:50:00;0.90;;;0.30;;
291;SDS011;23311;48.776;9.162;2023-11-19T04:52:29;1.37;;;0.40;;
291;SDS011;23311;48.776;9.162;2023-11-19T04:54:57;0.70;;;0.30;;
291;SDS011;23311;48.776;9.162;2023-11-19T04:57:25;0.70;;;0.30;;
291;SDS011;23311;48.776;9.162;2023-11-19T04:59:53;0.90;;;0.30;;
291;SDS011;23311;48.776;9.162;2023-11-19T05:02:23;0.60;;;0.30;;
291;SDS011;23311;48.776;9.162;2023-11-19T05:04:52;1.43;;;0.30;;
291;SDS011;23311;48.776;9.162;2023-11-19T05:07:20;0.70;;;0.30;;
291;SDS011;23311;48.776;9.162;2023-11-19T05:09:48;1.50;;;0.43;;
291;SDS011;23311;48.776;9.162;2023-11-19T05:12:16;1.10;;;0.30;;
291;SDS011;23311;48.776;9.162;2023-11-19T05:14:44;1.17;;;0.40;;
291;SDS011;23311;48.776;9.162;2023-11-19T05:17:16;1.00;;;0.40;;
291;SDS011;23311;48.776;9.162;2023-11-19T05:19:47;0.60;;;0.30;;
291;SDS011;23311;48.776;9.162;2023-11-19T05:22:15;1.00;;;0.30;;
291;SDS011;23311;48.776;9.162;2023-11-19T05:24:43;0.70;;;0.37;;
291;SDS011;23311;48.776;9.162;2023-11-19T05:27:11;0.70;;;0.30;;
291;SDS011;23311;48.776;9.162;2023-11-19T05:29:40;0.70;;;0.30;;
291;SDS011;23311;48.776;9.162;2023-11-19T05:32:09;0.70;;;0.30;;
291;SDS011;23311;48.776;9.162;2023-11-19T05:34:38;0.70;;;0.30;;
291;SDS011;23311;48.776;9.162;2023-11-19T05:37:19;1.47;;;0.83;;
291;SDS011;23311;48.776;9.162;2023-11-19T05:39:47;1.63;;;0.60;;
291;SDS011;23311;48.776;9.162;2023-11-19T05:42:15;1.43;;;0.40;;
291;SDS011;23311;48.776;9.162;2023-11-19T05:44:43;0.70;;;0.30;;
291;SDS011;23311;48.776;9.162;2023-11-19T05:47:11;0.80;;;0.40;;
291;SDS011;23311;48.776;9.162;2023-11-19T05:49:40;0.67;;;0.30;;
291;SDS011;23311;48.776;9.162;2023-11-19T05:52:08;1.70;;;0.30;;
291;SDS011;23311;48.776;9.162;2023-11-19T05:54:38;1.37;;;0.30;;
291;SDS011;23311;48.776;9.162;2023-11-19T05:57:06;1.23;;;0.50;;
291;SDS011;23311;48.776;9.162;2023-11-19T05:59:35;0.77;;;0.30;;
291;SDS011;23311;48.776;9.162;2023-11-19T06:02:04;0.70;;;0.30;;
291;SDS011;23311;48.776;9.162;2023-11-19T06:04:32;0.60;;;0.30;;
291;SDS011;23311;48.776;9.162;2023-11-19T06:07:00;1.00;;;0.30;;
291;SDS011;23311;48.776;9.162;2023-11-19T06:09:28;0.80;;;0.40;;
291;SDS011;23311;48.776;9.162;2023-11-19T06:11:57;0.63;;;0.30;;
291;SDS011;23311;48.776;9.162;2023-11-19T06:14:28;1.17;;;0.50;;
291;SDS011;23311;48.776;9.162;2023-11-19T06:16:56;0.80;;;0.30;;
291;SDS011;23311;48.776;9.162;2023-11-19T06:19:24;0.70;;;0.30;;
291;SDS011;23311;48.776;9.162;2023-11-19T06:21:56;0.70;;;0.30;;
291;SDS011;23311;48.776;9.162;2023-11-19T06:24:24;0.70;;;0.30;;
291;SDS011;23311;48.776;9.162;2023-11-19T06:26:52;0.80;;;0.30;;
291;SDS011;23311;48.776;9.162;2023-11-19T06:29:21;0.70;;;0.40;;
291;SDS011;23311;48.776;9.162;2023-11-19T06:31:49;0.70;;;0.37;;
291;SDS011;23311;48.776;9.162;2023-11-19T06:34:18;0.83;;;0.30;;
291;SDS011;23311;48.776;9.162;2023-11-19T06:36:46;1.03;;;0.50;;
291;SDS011;23311;48.776;9.162;2023-11-19T06:39:14;0.90;;;0.30;;
291;SDS011;23311;48.776;9.162;2023-11-19T06:41:46;0.70;;;0.40;;
291;SDS011;23311;48.776;9.162;2023-11-19T06:44:15;0.80;;;0.30;;
291;SDS011;23311;48.776;9.162;2023-11-19T06:46:45;0.70;;;0.30;;
291;SDS011;23311;48.776;9.162;2023-11-19T06:49:13;0.60;;;0.30;;
291;SDS011;23311;48.776;9.162;2023-11-19T06:51:43;0.80;;;0.50;;
291;SDS011;23311;48.776;9.162;2023-11-19T06:54:12;0.80;;;0.47;;
291;SDS011;23311;48.776;9.162;2023-11-19T06:56:40;0.70;;;0.40;;
291;SDS011;23311;48.776;9.162;2023-11-19T06:59:08;0.70;;;0.37;;
291;SDS011;23311;48.776;9.162;2023-11-19T07:01:37;1.20;;;0.60;;
291;SDS011;23311;48.776;9.162;2023-11-19T07:04:06;1.23;;;0.40;;
291;SDS011;23311;48.776;9.162;2023-11-19T07:06:35;1.10;;;0.50;;
291;SDS011;23311;48.776;9.162;2023-11-19T07:09:04;2.00;;;0.50;;
291;SDS011;23311;48.776;9.162;2023-11-19T07:11:37;0.90;;;0.50;;
291;SDS011;23311;48.776;9.162;2023-11-19T07:14:08;1.03;;;0.50;;
291;SDS011;23311;48.776;9.162;2023-11-19T07:16:36;1.00;;;0.50;;
291;SDS011;23311;48.776;9.162;2023-11-19T07:19:06;2.53;;;1.60;;
291;SDS011;23311;48.776;9.162;2023-11-19T07:21:34;4.00;;;2.73;;
291;SDS011;23311;48.776;9.162;2023-11-19T07:24:06;0.83;;;0.50;;
291;SDS011;23311;48.776;9.162;2023-11-19T07:26:34;1.60;;;0.90;;
291;SDS011;23311;48.776;9.162;2023-11-19T07:29:03;2.43;;;1.70;;
291;SDS011;23311;48.776;9.162;2023-11-19T07:31:34;1.00;;;0.80;;
291;SDS011;23311;48.776;9.162;2023-11-19T07:34:02;2.33;;;1.53;;
291;SDS011;23311;48.776;9.162;2023-11-19T07:36:33;1.10;;;0.63;;
291;SDS011;23311;48.776;9.162;2023-11-19T07:39:02;1.30;;;0.70;;
291;SDS011;23311;48.776;9.162;2023-11-19T07:41:31;0.90;;;0.60;;
291;SDS011;23311;48.776;9.162;2023-11-19T07:43:59;0.80;;;0.40;;
291;SDS011;23311;48.776;9.162;2023-11-19T07:46:28;0.80;;;0.40;;
291;SDS011;23311;48.776;9.162;2023-11-19T07:48:56;1.10;;;0.63;;
291;SDS011;23311;48.776;9.162;2023-11-19T07:51:24;2.33;;;0.30;;
291;SDS011;23311;48.776;9.162;2023-11-19T07:53:54;1.00;;;0.50;;
291;SDS011;23311;48.776;9.162;2023-11-19T07:56:22;1.53;;;0.60;;
291;SDS011;23311;48.776;9.162;2023-11-19T07:58:50;1.00;;;0.77;;
291;SDS011;23311;48.776;9.162;2023-11-19T08:01:18;2.47;;;1.97;;
291;SDS011;23311;48.776;9.162;2023-11-19T08:03:46;2.10;;;0.77;;
291;SDS011;23311;48.776;9.162;2023-11-19T08:06:17;1.47;;;0.83;;
291;SDS011;23311;48.776;9.162;2023-11-19T08:08:44;0.70;;;0.50;;
291;SDS011;23311;48.776;9.162;2023-11-19T08:11:15;1.00;;;0.60;;
291;SDS011;23311;48.776;9.162;2023-11-19T08:13:43;1.27;;;0.70;;
291;SDS011;23311;48.776;9.162;2023-11-19T08:16:11;1.07;;;0.70;;
291;SDS011;23311;48.776;9.162;2023-11-19T08:18:41;0.90;;;0.40;;
291;SDS011;23311;48.776;9.162;2023-11-19T08:21:10;1.47;;;0.87;;
291;SDS011;23311;48.776;9.162;2023-11-19T08:23:38;1.70;;;0.70;;
291;SDS011;23311;48.776;9.162;2023-11-19T08:26:06;1.17;;;0.80;;
291;SDS011;23311;48.776;9.162;2023-11-19T08:28:36;0.97;;;0.40;;
291;SDS011;23311;48.776;9.162;2023-11-19T08:31:05;1.10;;;0.40;;
291;SDS011;23311;48.776;9.162;2023-11-19T08:33:33;0.90;;;0.40;;
291;SDS011;23311;48.776;9.162;2023-11-19T08:36:02;1.00;;;0.47;;
291;SDS011;23311;48.776;9.162;2023-11-19T08:38:31;1.10;;;0.40;;
291;SDS011;23311;48.776;9.162;2023-11-19T08:40:59;1.00;;;0.50;;
291;SDS011;23311;48.776;9.162;2023-11-19T08:43:27;0.87;;;0.40;;
291;SDS011;23311;48.776;9.162;2023-11-19T08:45:57;0.70;;;0.40;;
291;SDS011;23311;48.776;9.162;2023-11-19T08:48:25;0.80;;;0.30;;
291;SDS011;23311;48.776;9.162;2023-11-19T08:50:53;1.00;;;0.50;;
291;SDS011;23311;48.776;9.162;2023-11-19T08:53:21;1.10;;;0.60;;
291;SDS011;23311;48.776;9.162;2023-11-19T08:55:49;1.43;;;0.60;;
291;SDS011;23311;48.776;9.162;2023-11-19T08:58:18;0.90;;;0.60;;
291;SDS011;23311;48.776;9.162;2023-11-19T09:00:46;1.47;;;0.57;;
291;SDS011;23311;48.776;9.162;2023-11-19T09:03:15;1.00;;;0.50;;
291;SDS011;23311;48.776;9.162;2023-11-19T09:05:44;0.80;;;0.40;;
291;SDS011;23311;48.776;9.162;2023-11-19T09:08:12;2.30;;;0.60;;
291;SDS011;23311;48.776;9.162;2023-11-19T09:10:40;1.30;;;0.50;;
291;SDS011;23311;48.776;9.162;2023-11-19T09:13:08;1.10;;;0.60;;
291;SDS011;23311;48.776;9.162;2023-11-19T09:15:36;3.40;;;0.60;;
291;SDS011;23311;48.776;9.162;2023-11-19T09:18:04;2.10;;;0.50;;
291;SDS011;23311;48.776;9.162;2023-11-19T09:20:34;1.20;;;0.60;;
291;SDS011;23311;48.776;9.162;2023-11-19T09:23:05;0.70;;;0.30;;
291;SDS011;23311;48.776;9.162;2023-11-19T09:25:35;0.80;;;0.40;;
291;SDS011;23311;48.776;9.162;2023-11-19T09:28:06;1.13;;;0.40;;
291;SDS011;23311;48.776;9.162;2023-11-19T09:30:35;1.00;;;0.40;;
291;SDS011;23311;48.776;9.162;2023-11-19T09:33:03;0.90;;;0.50;;
291;SDS011;23311;48.776;9.162;2023-11-19T09:35:33;2.30;;;0.60;;
291;SDS011;23311;48.776;9.162;2023-11-19T09:38:01;0.77;;;0.47;;
291;SDS011;23311;48.776;9.162;2023-11-19T09:40:31;1.53;;;0.70;;
291;SDS011;23311;48.776;9.162;2023-11-19T09:42:59;1.60;;;0.50;;
291;SDS011;23311;48.776;9.162;2023-11-19T09:45:28;0.90;;;0.40;;
291;SDS011;23311;48.776;9.162;2023-11-19T09:47:59;1.93;;;0.77;;
291;SDS011;23311;48.776;9.162;2023-11-19T09:50:28;2.20;;;0.90;;
291;SDS011;23311;48.776;9.162;2023-11-19T09:52:58;2.07;;;1.23;;
291;SDS011;23311;48.776;9.162;2023-11-19T09:55:26;1.30;;;0.70;;
291;SDS011;23311;48.776;9.162;2023-11-19T09:57:54;1.47;;;0.67;;
291;SDS011;23311;48.776;9.162;2023-11-19T10:00:23;1.40;;;0.70;;
291;SDS011;23311;48.776;9.162;2023-11-19T10:02:51;1.20;;;0.70;;
291;SDS011;23311;48.776;9.162;2023-11-19T10:05:20;2.60;;;0.60;;
291;SDS011;23311;48.776;9.162;2023-11-19T10:07:51;1.17;;;0.57;;
291;SDS011;23311;48.776;9.162;2023-11-19T10:10:21;1.30;;;0.77;;
291;SDS011;23311;48.776;9.162;2023-11-19T10:12:50;0.90;;;0.50;;
291;SDS011;23311;48.776;9.162;2023-11-19T10:15:22;1.50;;;1.23;;
291;SDS011;23311;48.776;9.162;2023-11-19T10:17:54;2.43;;;0.60;;
291;SDS011;23311;48.776;9.162;2023-11-19T10:20:23;1.67;;;0.50;;
291;SDS011;23311;48.776;9.162;2023-11-19T10:22:52;1.77;;;0.60;;
291;SDS011;23311;48.776;9.162;2023-11-19T10:25:22;1.00;;;0.60;;
291;SDS011;23311;48.776;9.162;2023-11-19T10:27:51;1.93;;;0.80;;
291;SDS011;23311;48.776;9.162;2023-11-19T10:30:20;2.83;;;0.80;;
291;SDS011;23311;48.776;9.162;2023-11-19T10:33:04;1.73;;;0.63;;
291;SDS011;23311;48.776;9.162;2023-11-19T10:35:34;1.37;;;0.50;;
291;SDS011;23311;48.776;9.162;2023-11-19T10:38:12;2.60;;;0.70;;
291;SDS011;23311;48.776;9.162;2023-11-19T10:40:43;3.20;;;1.07;;
291;SDS011;23311;48.776;9.162;2023-11-19T10:43:11;2.77;;;0.70;;
291;SDS011;23311;48.776;9.162;2023-11-19T10:45:40;1.70;;;0.60;;
291;SDS011;23311;48.776;9.162;2023-11-19T10:48:09;3.73;;;0.60;;
291;SDS011;23311;48.776;9.162;2023-11-19T10:50:39;1.27;;;0.70;;
291;SDS011;23311;48.776;9.162;2023-11-19T10:53:09;2.50;;;0.70;;
291;SDS011;23311;48.776;9.162;2023-11-19T10:55:39;1.77;;;0.70;;
291;SDS011;23311;48.776;9.162;2023-11-19T10:58:09;1.70;;;0.77;;
291;SDS011;23311;48.776;9.162;2023-11-19T11:00:38;1.30;;;0.60;;
291;SDS011;23311;48.776;9.162;2023-11-19T11:03:11;0.97;;;0.60;;
291;SDS011;23311;48.776;9.162;2023-11-19T11:05:44;1.37;;;0.50;;
291;SDS011;23311;48.776;9.162;2023-11-19T11:08:14;2.20;;;0.57;;
291;SDS011;23311;48.776;9.162;2023-11-19T11:10:44;1.73;;;0.53;;
291;SDS011;23311;48.776;9.162;2023-11-19T11:13:17;1.43;;;0.50;;
291;SDS011;23311;48.776;9.162;2023-11-19T11:15:46;2.10;;;0.67;;
291;SDS011;23311;48.776;9.162;2023-11-19T11:18:15;2.83;;;0.60;;
291;SDS011;23311;48.776;9.162;2023-11-19T11:20:44;1.77;;;0.80;;
291;SDS011;23311;48.776;9.162;2023-11-19T11:23:27;2.60;;;0.60;;
291;SDS011;23311;48.776;9.162;2023-11-19T11:29:37;1.90;;;0.80;;
291;SDS011;23311;48.776;9.162;2023-11-19T11:32:13;4.20;;;0.90;;
291;SDS011;23311;48.776;9.162;2023-11-19T11:34:54;1.03;;;0.40;;
291;SDS011;23311;48.776;9.162;2023-11-19T11:37:31;2.77;;;0.70;;
291;SDS011;23311;48.776;9.162;2023-11-19T11:40:02;2.07;;;0.53;;
291;SDS011;23311;48.776;9.162;2023-11-19T11:42:37;1.50;;;0.63;;
291;SDS011;23311;48.776;9.162;2023-11-19T11:45:07;1.70;;;0.70;;
291;SDS011;23311;48.776;9.162;2023-11-19T11:50:55;1.23;;;0.70;;
291;SDS011;23311;48.776;9.162;2023-11-19T11:53:25;1.60;;;0.67;;
291;SDS011;23311;48.776;9.162;2023-11-19T11:55:54;1.63;;;0.93;;
291;SDS011;23311;48.776;9.162;2023-11-19T11:58:29;1.70;;;0.80;;
291;SDS011;23311;48.776;9.162;2023-11-19T12:01:04;3.40;;;1.40;;
291;SDS011;23311;48.776;9.162;2023-11-19T12:03:36;1.67;;;0.90;;
291;SDS011;23311;48.776;9.162;2023-11-19T12:06:05;4.20;;;1.00;;
291;SDS011;23311;48.776;9.162;2023-11-19T12:08:34;1.93;;;0.90;;
291;SDS011;23311;48.776;9.162;2023-11-19T12:11:19;3.60;;;1.50;;
291;SDS011;23311;48.776;9.162;2023-11-19T12:13:56;1.93;;;0.83;;
291;SDS011;23311;48.776;9.162;2023-11-19T12:16:30;1.63;;;1.00;;
291;SDS011;23311;48.776;9.162;2023-11-19T12:19:04;1.83;;;0.90;;
291;SDS011;23311;48.776;9.162;2023-11-19T12:21:33;1.53;;;0.80;;
291;SDS011;23311;48.776;9.162;2023-11-19T12:24:04;2.00;;;0.97;;
291;SDS011;23311;48.776;9.162;2023-11-19T12:26:34;1.43;;;0.63;;
291;SDS011;23311;48.776;9.162;2023-11-19T12:29:03;3.23;;;0.80;;
291;SDS011;23311;48.776;9.162;2023-11-19T12:31:36;1.60;;;0.60;;
291;SDS011;23311;48.776;9.162;2023-11-19T12:34:06;2.10;;;0.90;;
291;SDS011;23311;48.776;9.162;2023-11-19T12:36:39;1.20;;;0.60;;
291;SDS011;23311;48.776;9.162;2023-11-19T12:39:09;1.13;;;0.50;;
291;SDS011;23311;48.776;9.162;2023-11-19T12:41:49;1.10;;;0.60;;
291;SDS011;23311;48.776;9.162;2023-11-19T12:44:18;2.07;;;0.60;;
291;SDS011;23311;48.776;9.162;2023-11-19T12:46:48;1.40;;;0.50;;
291;SDS011;23311;48.776;9.162;2023-11-19T12:49:30;1.60;;;1.03;;
291;SDS011;23311;48.776;9.162;2023-11-19T12:51:58;1.73;;;0.73;;
291;SDS011;23311;48.776;9.162;2023-11-19T12:54:34;1.10;;;0.50;;
291;SDS011;23311;48.776;9.162;2023-11-19T12:57:03;1.20;;;0.50;;
291;SDS011;23311;48.776;9.162;2023-11-19T12:59:32;2.47;;;0.60;;
291;SDS011;23311;48.776;9.162;2023-11-19T13:02:01;1.80;;;1.00;;
291;SDS011;23311;48.776;9.162;2023-11-19T13:04:32;1.37;;;0.70;;
291;SDS011;23311;48.776;9.162;2023-11-19T13:07:01;1.50;;;0.60;;
291;SDS011;23311;48.776;9.162;2023-11-19T13:09:31;1.97;;;0.97;;
291;SDS011;23311;48.776;9.162;2023-11-19T13:12:11;1.53;;;0.70;;
291;SDS011;23311;48.776;9.162;2023-11-19T13:14:40;1.63;;;0.70;;
291;SDS011;23311;48.776;9.162;2023-11-19T13:17:15;2.03;;;0.70;;
291;SDS011;23311;48.776;9.162;2023-11-19T13:19:43;1.20;;;0.87;;
291;SDS011;23311;48.776;9.162;2023-11-19T13:22:14;1.83;;;0.53;;
291;SDS011;23311;48.776;9.162;2023-11-19T13:24:42;2.50;;;0.77;;
291;SDS011;23311;48.776;9.162;2023-11-19T13:27:10;1.37;;;0.50;;
291;SDS011;23311;48.776;9.162;2023-11-19T13:29:38;2.03;;;0.90;;
291;SDS011;23311;48.776;9.162;2023-11-19T13:32:06;1.57;;;0.60;;
291;SDS011;23311;48.776;9.162;2023-11-19T13:34:36;1.57;;;0.60;;
291;SDS011;23311;48.776;9.162;2023-11-19T13:37:04;2.77;;;0.70;;
291;SDS011;23311;48.776;9.162;2023-11-19T13:39:32;3.63;;;0.80;;
291;SDS011;23311;48.776;9.162;2023-11-19T13:42:00;4.17;;;0.80;;
291;SDS011;23311;48.776;9.162;2023-11-19T13:44:31;1.60;;;0.87;;
291;SDS011;23311;48.776;9.162;2023-11-19T13:47:00;1.00;;;0.57;;
291;SDS011;23311;48.776;9.162;2023-11-19T13:49:29;1.00;;;0.50;;
291;SDS011;23311;48.776;9.162;2023-11-19T13:51:58;1.40;;;0.53;;
291;SDS011;23311;48.776;9.162;2023-11-19T13:54:26;1.83;;;0.70;;
291;SDS011;23311;48.776;9.162;2023-11-19T13:56:54;1.80;;;0.70;;
291;SDS011;23311;48.776;9.162;2023-11-19T13:59:24;1.20;;;0.50;;
291;SDS011;23311;48.776;9.162;2023-11-19T14:01:52;1.20;;;0.60;;
291;SDS011;23311;48.776;9.162;2023-11-19T14:04:20;1.30;;;1.03;;
291;SDS011;23311;48.776;9.162;2023-11-19T14:06:49;1.93;;;0.50;;
291;SDS011;23311;48.776;9.162;2023-11-19T14:09:18;2.27;;;0.57;;
291;SDS011;23311;48.776;9.162;2023-11-19T14:11:46;1.37;;;0.53;;
291;SDS011;23311;48.776;9.162;2023-11-19T14:14:17;1.87;;;0.70;;
291;SDS011;23311;48.776;9.162;2023-11-19T14:16:45;2.50;;;0.50;;
291;SDS011;23311;48.776;9.162;2023-11-19T14:19:14;1.23;;;0.63;;
291;SDS011;23311;48.776;9.162;2023-11-19T14:21:42;1.93;;;0.67;;
291;SDS011;23311;48.776;9.162;2023-11-19T14:24:11;4.17;;;0.60;;
291;SDS011;23311;48.776;9.162;2023-11-19T14:26:41;1.67;;;0.60;;
291;SDS011;23311;48.776;9.162;2023-11-19T14:29:09;2.13;;;0.73;;
291;SDS011;23311;48.776;9.162;2023-11-19T14:31:37;6.17;;;3.10;;
291;SDS011;23311;48.776;9.162;2023-11-19T14:34:06;2.60;;;0.70;;
291;SDS011;23311;48.776;9.162;2023-11-19T14:36:34;2.53;;;1.43;;
291;SDS011;23311;48.776;9.162;2023-11-19T14:39:02;1.10;;;0.50;;
291;SDS011;23311;48.776;9.162;2023-11-19T14:41:30;1.90;;;0.60;;
291;SDS011;23311;48.776;9.162;2023-11-19T14:44:00;2.00;;;0.57;;
291;SDS011;23311;48.776;9.162;2023-11-19T14:46:29;2.27;;;0.70;;
291;SDS011;23311;48.776;9.162;2023-11-19T14:48:57;2.60;;;1.03;;
291;SDS011;23311;48.776;9.162;2023-11-19T14:51:26;1.13;;;0.53;;
291;SDS011;23311;48.776;9.162;2023-11-19T14:53:55;1.67;;;0.93;;
291;SDS011;23311;48.776;9.162;2023-11-19T14:56:23;2.70;;;0.90;;
291;SDS011;23311;48.776;9.162;2023-11-19T14:58:51;1.20;;;0.53;;
291;SDS011;23311;48.776;9.162;2023-11-19T15:01:20;1.77;;;0.70;;
291;SDS011;23311;48.776;9.162;2023-11-19T15:03:48;1.60;;;0.70;;
291;SDS011;23311;48.776;9.162;2023-11-19T15:06:22;2.30;;;0.80;;
291;SDS011;23311;48.776;9.162;2023-11-19T15:08:52;1.00;;;0.60;;
291;SDS011;23311;48.776;9.162;2023-11-19T15:11:21;2.00;;;0.83;;
291;SDS011;23311;48.776;9.162;2023-11-19T15:13:49;1.97;;;0.50;;
291;SDS011;23311;48.776;9.162;2023-11-19T15:16:17;2.50;;;1.00;;
291;SDS011;23311;48.776;9.162;2023-11-19T15:18:52;1.87;;;0.70;;
291;SDS011;23311;48.776;9.162;2023-11-19T15:21:20;3.03;;;0.60;;
291;SDS011;23311;48.776;9.162;2023-11-19T15:23:48;1.83;;;0.73;;
291;SDS011;23311;48.776;9.162;2023-11-19T15:26:16;1.70;;;0.80;;
291;SDS011;23311;48.776;9.162;2023-11-19T15:28:46;4.60;;;0.73;;
291;SDS011;23311;48.776;9.162;2023-11-19T15:31:14;1.57;;;0.70;;
291;SDS011;23311;48.776;9.162;2023-11-19T15:33:43;3.03;;;1.83;;
291;SDS011;23311;48.776;9.162;2023-11-19T15:36:14;1.80;;;1.00;;